Time;durP1;ratioP1;P1;durP2;ratioP2;P2;SDS_P1;SDS_P2;PMS_P1;PMS_P2;Temp;Humidity;BMP_temperature;BMP_pressure;BME280_temperature;BME280_humidity;BME280_pressure;Samples;Min_cycle;Max_cycle;Signal;HPM_P1;HPM_P2
2022/05/01 00:01:01;;;;;;;26.15;21.20;;;;;;;10.69;78.40;100402.50;1088392;54;20049;-78
2022/05/01 00:02:06;;;;;;;24.10;20.25;;;;;;;10.69;78.32;100397.16;1088339;54;20042;-79
2022/05/01 00:03:07;;;;;;;26.42;22.38;;;;;;;10.57;78.36;100398.28;1088339;54;20030;-79
2022/05/01 00:04:12;;;;;;;27.70;22.92;;;;;;;10.37;79.27;100403.56;1088296;54;20034;-78
2022/05/01 00:05:13;;;;;;;28.88;24.13;;;;;;;10.20;80.14;100404.16;1088214;54;20054;-78
2022/05/01 00:06:19;;;;;;;30.83;23.67;;;;;;;10.19;80.50;100395.28;1088285;54;20076;-77
2022/05/01 00:07:20;;;;;;;27.38;23.27;;;;;;;10.29;80.01;100395.34;1088299;54;20007;-78
2022/05/01 00:08:24;;;;;;;30.38;24.30;;;;;;;10.18;80.36;100387.41;1088203;54;20034;-77
2022/05/01 00:09:26;;;;;;;30.15;25.73;;;;;;;10.08;80.62;100387.34;1087961;54;20642;-77
2022/05/01 00:10:30;;;;;;;26.75;23.85;;;;;;;10.06;81.06;100392.84;1087481;54;20058;-77
2022/05/01 00:11:32;;;;;;;30.38;25.73;;;;;;;10.17;80.77;100385.72;1087891;54;20050;-79
2022/05/01 00:12:36;;;;;;;25.88;21.25;;;;;;;10.32;79.97;100388.88;1087847;54;20094;-78
2022/05/01 00:13:39;;;;;;;26.38;23.15;;;;;;;10.22;79.95;100388.81;1089043;46;20110;-78
2022/05/01 00:14:43;;;;;;;24.70;20.63;;;;;;;10.41;79.56;100390.75;1087794;39;20913;-78
2022/05/01 00:15:48;;;;;;;29.95;22.80;;;;;;;10.31;79.53;100382.66;1087765;54;20057;-77
2022/05/01 00:16:52;;;;;;;25.52;21.55;;;;;;;10.39;79.31;100385.53;1087845;54;20030;-77
2022/05/01 00:17:54;;;;;;;25.30;20.70;;;;;;;10.54;78.86;100385.19;1087627;54;20042;-78
2022/05/01 00:18:59;;;;;;;25.50;21.05;;;;;;;10.42;78.89;100379.94;1088855;39;20449;-77
2022/05/01 00:20:00;;;;;;;24.90;22.05;;;;;;;10.39;78.99;100385.53;1087865;47;20034;-79
2022/05/01 00:21:05;;;;;;;25.90;22.15;;;;;;;10.46;78.64;100383.16;1092867;39;20472;-77
2022/05/01 00:22:06;;;;;;;27.52;22.33;;;;;;;10.41;78.70;100383.59;1090240;39;20465;-77
2022/05/01 00:23:10;;;;;;;25.67;21.40;;;;;;;10.49;78.38;100382.06;1087890;54;20065;-76
2022/05/01 00:24:12;;;;;;;22.27;19.80;;;;;;;10.57;78.05;100379.56;1087716;54;20630;-77
2022/05/01 00:25:16;;;;;;;22.52;19.23;;;;;;;10.64;78.17;100380.69;1088127;46;20034;-78
2022/05/01 00:26:18;;;;;;;24.90;21.15;;;;;;;10.51;78.25;100378.28;1087705;54;20034;-77
2022/05/01 00:27:22;;;;;;;23.40;19.83;;;;;;;10.56;78.28;100381.38;1089840;39;20448;-80
2022/05/01 00:28:24;;;;;;;23.83;20.05;;;;;;;10.68;77.75;100382.09;1087795;46;20049;-77
2022/05/01 00:29:28;;;;;;;21.35;18.75;;;;;;;10.72;77.57;100377.34;1087570;54;20034;-79
2022/05/01 00:30:29;;;;;;;23.83;19.58;;;;;;;10.72;77.52;100378.19;1087728;54;20045;-78
2022/05/01 00:31:36;;;;;;;27.00;19.20;;;;;;;10.74;77.53;100378.91;1088178;39;20428;-78
2022/05/01 00:36:30;;;;;;;20.73;17.77;;;;;;;10.86;76.86;100371.59;1087750;54;20121;-78
2022/05/01 00:37:31;;;;;;;24.38;20.23;;;;;;;10.64;77.40;100379.84;1087243;54;20026;-77
2022/05/01 00:38:36;;;;;;;25.20;21.00;;;;;;;10.60;77.80;100381.94;1087241;54;20038;-76
2022/05/01 00:39:37;;;;;;;26.27;21.55;;;;;;;10.57;77.79;100374.22;1087812;54;20045;-78
2022/05/01 00:40:42;;;;;;;21.80;19.17;;;;;;;10.66;77.74;100378.75;1087720;54;20041;-78
2022/05/01 00:41:46;;;;;;;21.13;18.88;;;;;;;10.74;77.37;100368.19;1087794;54;20061;-78
2022/05/01 00:42:50;;;;;;;20.42;17.58;;;;;;;10.85;76.90;100375.25;1087602;54;20026;-78
2022/05/01 00:44:00;;;;;;;19.35;16.65;;;;;;;10.90;76.81;100374.81;1088543;46;20038;-78
2022/05/01 00:45:04;;;;;;;21.65;17.05;;;;;;;10.91;76.84;100376.53;1087563;54;20038;-78
2022/05/01 00:46:06;;;;;;;21.77;18.10;;;;;;;10.90;76.83;100377.50;1087868;54;20046;-78
2022/05/01 00:47:13;;;;;;;26.00;20.90;;;;;;;10.71;77.05;100379.16;1088216;54;20022;-77
2022/05/01 00:48:15;;;;;;;22.40;19.85;;;;;;;10.68;77.41;100374.09;1088204;54;20040;-78
2022/05/01 00:49:20;;;;;;;24.38;20.13;;;;;;;10.73;77.29;100377.19;1088197;54;20038;-78
2022/05/01 00:50:22;;;;;;;21.23;18.17;;;;;;;10.83;77.04;100371.03;1088233;54;20057;-78
2022/05/01 00:51:27;;;;;;;20.83;18.17;;;;;;;10.82;76.89;100382.72;1088270;54;20034;-78
2022/05/01 00:52:33;;;;;;;20.05;17.90;;;;;;;10.80;76.87;100376.66;1089084;46;20702;-78
2022/05/01 00:53:34;;;;;;;22.00;18.30;;;;;;;10.73;77.03;100373.66;1088277;54;20034;-78
2022/05/01 00:54:41;;;;;;;23.48;20.00;;;;;;;10.65;77.35;100377.06;1088210;54;20030;-78
2022/05/01 00:55:43;;;;;;;32.05;23.23;;;;;;;10.51;78.10;100380.97;1088223;54;20034;-78
2022/05/01 00:56:50;;;;;;;27.98;22.90;;;;;;;10.43;78.39;100386.97;1088298;54;20044;-77
2022/05/01 00:57:52;;;;;;;28.58;23.45;;;;;;;10.39;78.32;100384.69;1088247;54;20081;-78
2022/05/01 00:58:56;;;;;;;26.98;22.60;;;;;;;10.41;78.51;100385.41;1088199;54;20027;-79
2022/05/01 01:00:00;;;;;;;27.80;22.98;;;;;;;10.43;78.41;100386.13;1088176;54;20677;-78
2022/05/01 01:01:02;;;;;;;25.27;22.02;;;;;;;10.43;78.46;100381.63;1088068;54;20756;-78
2022/05/01 01:02:08;;;;;;;25.00;22.27;;;;;;;10.52;77.85;100385.31;1087842;54;20030;-77
2022/05/01 01:03:12;;;;;;;24.33;20.88;;;;;;;10.60;77.65;100382.81;1088139;54;20045;-78
2022/05/01 01:04:16;;;;;;;24.70;21.15;;;;;;;10.60;77.52;100382.81;1088107;54;20619;-78
2022/05/01 01:05:18;;;;;;;24.77;20.73;;;;;;;10.65;77.54;100382.41;1088204;54;20098;-78
2022/05/01 01:06:22;;;;;;;24.80;20.23;;;;;;;10.68;77.31;100379.44;1088259;54;20034;-78
2022/05/01 01:07:28;;;;;;;22.90;18.90;;;;;;;10.81;77.12;100372.97;1088585;46;20023;-78
2022/05/01 01:08:30;;;;;;;18.75;16.60;;;;;;;10.87;76.59;100381.31;1088161;54;20054;-79
2022/05/01 01:09:35;;;;;;;19.27;16.35;;;;;;;10.95;76.37;100379.75;1088209;54;20048;-78
2022/05/01 01:10:37;;;;;;;22.92;17.77;;;;;;;10.95;76.51;100379.75;1088154;54;20046;-78
2022/05/01 01:11:42;;;;;;;22.80;18.75;;;;;;;10.77;76.81;100378.59;1088208;54;20034;-78
2022/05/01 01:12:56;;;;;;;27.35;20.85;;;;;;;10.66;77.23;100384.09;1088798;46;20023;-77
2022/05/01 01:14:03;;;;;;;28.00;23.02;;;;;;;10.47;77.86;100382.19;1088192;54;20081;-78
2022/05/01 01:15:08;;;;;;;25.65;22.23;;;;;;;10.44;78.21;100382.47;1088134;54;20037;-78
2022/05/01 01:16:10;;;;;;;27.05;22.80;;;;;;;10.42;78.20;100384.44;1088259;54;20015;-78
2022/05/01 01:17:14;;;;;;;27.33;22.83;;;;;;;10.43;78.32;100386.13;1092282;39;20617;-78
2022/05/01 01:18:19;;;;;;;24.73;20.85;;;;;;;10.54;77.83;100387.84;1087863;54;20037;-77
2022/05/01 01:19:23;;;;;;;30.60;22.92;;;;;;;10.34;78.58;100386.91;1088029;54;20026;-78
2022/05/01 01:20:31;;;;;;;27.10;22.48;;;;;;;10.40;78.39;100387.22;1088152;54;20061;-78
2022/05/01 01:21:36;;;;;;;25.00;22.23;;;;;;;10.35;78.40;100389.44;1088147;54;20045;-78
2022/05/01 01:22:41;;;;;;;25.13;21.73;;;;;;;10.40;78.27;100384.56;1088205;54;20046;-78
2022/05/01 01:23:43;;;;;;;23.50;20.27;;;;;;;10.58;77.85;100384.75;1088260;54;20029;-77
2022/05/01 01:25:50;;;;;;;19.45;16.75;;;;;;;10.80;76.93;100384.66;1088148;54;20038;-79
2022/05/01 01:26:53;;;;;;;20.50;18.30;;;;;;;10.79;76.65;100377.63;1088252;54;20034;-77
2022/05/01 01:28:02;;;;;;;21.63;17.77;;;;;;;10.78;76.90;100379.47;1090311;46;20025;-77
2022/05/01 01:31:40;;;;;;;22.25;17.48;;;;;;;10.85;76.71;100382.44;1088092;54;20607;-78
2022/05/01 01:31:47;;;;;;;26.50;20.83;;;;;;;10.54;77.69;100382.50;1088145;54;20031;-77
2022/05/01 01:32:50;;;;;;;27.52;22.85;;;;;;;10.52;77.99;100384.47;1088193;54;20023;-76
2022/05/01 01:33:58;;;;;;;28.05;22.92;;;;;;;10.44;78.13;100383.31;1088176;54;20038;-78
2022/05/01 01:35:00;;;;;;;26.17;22.73;;;;;;;10.47;78.27;100379.53;1087683;54;20031;-77
2022/05/01 01:36:06;;;;;;;28.02;23.52;;;;;;;10.51;78.09;100380.09;1088901;46;20035;-77
2022/05/01 01:37:13;;;;;;;26.48;21.17;;;;;;;10.51;78.01;100377.41;1088235;54;20035;-77
2022/05/01 01:38:17;;;;;;;27.98;23.67;;;;;;;10.45;78.35;100381.47;1088245;54;20111;-79
2022/05/01 01:39:19;;;;;;;27.33;23.67;;;;;;;10.34;78.51;100377.06;1088200;54;20034;-79
2022/05/01 01:40:25;;;;;;;29.92;25.30;;;;;;;10.26;79.26;100375.06;1088162;54;20015;-80
2022/05/01 01:41:29;;;;;;;27.55;22.88;;;;;;;10.26;79.29;100374.22;1088151;54;20034;-78
2022/05/01 01:42:34;;;;;;;26.67;22.70;;;;;;;10.34;79.01;100377.06;1088223;54;20046;-79
2022/05/01 01:43:37;;;;;;;28.17;23.85;;;;;;;10.36;78.83;100379.59;1088276;54;20038;-79
2022/05/01 01:44:42;;;;;;;25.80;21.98;;;;;;;10.55;78.14;100373.50;1088191;54;20022;-78
2022/05/01 01:45:44;;;;;;;23.35;20.50;;;;;;;10.62;78.04;100371.97;1088137;54;20038;-79
2022/05/01 01:46:49;;;;;;;28.85;22.75;;;;;;;10.43;78.18;100365.59;1088753;46;20023;-79
2022/05/01 01:47:50;;;;;;;28.98;23.65;;;;;;;10.36;78.91;100367.09;1088255;54;20058;-78
2022/05/01 01:48:55;;;;;;;28.65;23.63;;;;;;;10.33;78.87;100372.69;1088199;54;20034;-78
2022/05/01 01:49:56;;;;;;;29.40;23.67;;;;;;;10.33;79.17;100370.03;1088151;54;20690;-79
2022/05/01 01:51:02;;;;;;;25.65;22.77;;;;;;;10.40;79.05;100365.84;1087963;54;20031;-79
2022/05/01 01:52:05;;;;;;;24.38;21.48;;;;;;;10.57;78.31;100371.53;1087851;54;20837;-79
2022/05/01 01:53:13;;;;;;;23.65;21.10;;;;;;;10.60;77.94;100361.41;1088252;54;20043;-80
2022/05/01 01:54:15;;;;;;;24.60;20.70;;;;;;;10.68;77.77;100354.53;1088359;39;20491;-78
2022/05/01 01:55:20;;;;;;;22.90;19.80;;;;;;;10.72;77.55;100364.81;1088085;54;20045;-78
2022/05/01 01:56:22;;;;;;;20.98;18.10;;;;;;;10.81;77.42;100362.28;1088096;54;20018;-78
2022/05/01 01:57:26;;;;;;;23.05;19.45;;;;;;;10.79;77.07;100369.59;1088060;54;20019;-78
2022/05/01 01:58:29;;;;;;;22.42;19.95;;;;;;;10.86;76.89;100365.41;1087742;54;20042;-79
2022/05/01 01:59:33;;;;;;;22.00;19.05;;;;;;;10.91;76.92;100368.50;1088161;54;20086;-78
2022/05/01 02:00:35;;;;;;;24.40;19.65;;;;;;;10.85;76.73;100363.72;1088013;54;20034;-78
2022/05/01 02:01:44;;;;;;;24.77;20.20;;;;;;;10.83;76.95;100363.00;1088126;54;20053;-78
2022/05/01 02:02:45;;;;;;;23.02;19.35;;;;;;;10.84;76.88;100359.34;1088068;54;20107;-78
2022/05/01 02:03:49;;;;;;;23.33;20.30;;;;;;;10.82;77.13;100359.47;1088110;54;20073;-78
2022/05/01 02:04:51;;;;;;;22.95;19.75;;;;;;;10.83;76.77;100361.16;1088011;54;20034;-80
2022/05/01 02:05:55;;;;;;;23.63;20.08;;;;;;;10.85;77.02;100355.69;1088001;54;20065;-80
2022/05/01 02:06:59;;;;;;;23.30;20.33;;;;;;;10.82;76.92;100356.78;1088054;54;20061;-79
2022/05/01 02:08:01;;;;;;;20.23;17.40;;;;;;;10.93;76.81;100361.19;1087746;54;20052;-80
2022/05/01 02:09:09;;;;;;;21.40;18.38;;;;;;;10.99;76.42;100355.25;1087894;54;20058;-81
2022/05/01 02:10:10;;;;;;;20.67;17.20;;;;;;;11.02;76.45;100357.69;1087871;54;20070;-81
2022/05/01 02:11:14;;;;;;;18.70;16.55;;;;;;;11.01;76.34;100360.47;1087869;54;20603;-80
2022/05/01 02:12:16;;;;;;;22.63;18.33;;;;;;;10.93;76.47;100354.00;1087942;54;20026;-80
2022/05/01 02:13:21;;;;;;;22.13;19.40;;;;;;;10.93;76.46;100353.16;1087803;54;20034;-80
2022/05/01 02:14:22;;;;;;;20.52;17.80;;;;;;;10.97;76.41;100351.88;1088066;54;20014;-81
2022/05/01 02:15:28;;;;;;;19.75;17.42;;;;;;;11.04;76.22;100345.00;1087801;54;20050;-80
2022/05/01 02:16:29;;;;;;;21.23;17.88;;;;;;;11.05;76.32;100354.69;1087907;54;20057;-80
2022/05/01 02:17:34;;;;;;;20.95;18.67;;;;;;;11.11;76.02;100357.81;1088041;54;20050;-81
2022/05/01 02:18:35;;;;;;;22.67;18.42;;;;;;;11.08;76.05;100349.06;1088099;54;20820;-81
2022/05/01 02:19:39;;;;;;;21.55;18.13;;;;;;;11.11;76.08;100353.28;1088098;54;20651;-79
2022/05/01 02:22:01;;;;;;;18.88;16.33;;;;;;;11.13;75.76;100354.00;1087881;54;20030;-80
2022/05/01 02:23:03;;;;;;;18.83;16.83;;;;;;;11.14;75.76;100352.19;1087992;54;20042;-81
2022/05/01 02:24:12;;;;;;;19.75;16.38;;;;;;;11.15;75.56;100349.38;1088022;47;20034;-80
2022/05/01 02:25:14;;;;;;;21.33;17.67;;;;;;;11.14;75.85;100346.84;1087258;54;21144;-80
2022/05/01 02:26:18;;;;;;;23.38;19.17;;;;;;;11.07;76.15;100349.22;1086987;54;20045;-81
2022/05/01 02:27:23;;;;;;;23.35;19.98;;;;;;;10.86;76.82;100350.19;1087801;54;20039;-80
2022/05/01 02:28:24;;;;;;;23.92;20.52;;;;;;;10.99;76.58;100349.91;1087880;54;20034;-81
2022/05/01 02:29:29;;;;;;;22.17;18.70;;;;;;;11.05;75.93;100346.66;1087904;54;20039;-80
2022/05/01 02:30:31;;;;;;;22.58;18.95;;;;;;;11.10;75.97;100340.06;1088352;39;20520;-80
2022/05/01 02:31:36;;;;;;;20.23;17.40;;;;;;;11.15;75.89;100343.16;1087955;54;20018;-80
2022/05/01 02:32:38;;;;;;;20.58;17.17;;;;;;;11.17;75.89;100341.19;1088069;54;20042;-81
2022/05/01 02:33:43;;;;;;;18.35;16.23;;;;;;;11.18;75.80;100341.06;1088157;54;20784;-80
2022/05/01 02:34:48;;;;;;;20.10;17.05;;;;;;;11.14;75.80;100342.31;1089417;47;20128;-81
2022/05/01 02:35:49;;;;;;;20.77;17.45;;;;;;;11.03;76.16;100346.00;1089043;39;20629;-81
2022/05/01 02:36:55;;;;;;;22.17;19.40;;;;;;;11.00;76.17;100340.09;1088227;54;20047;-82
2022/05/01 02:37:57;;;;;;;26.25;20.70;;;;;;;10.80;76.97;100339.19;1088291;54;20058;-81
2022/05/01 02:39:01;;;;;;;29.17;22.45;;;;;;;10.67;77.37;100340.34;1090476;39;20670;-81
2022/05/01 02:40:07;;;;;;;29.02;25.25;;;;;;;10.47;78.31;100349.28;1088182;54;20030;-82
2022/05/01 02:41:12;;;;;;;29.48;24.85;;;;;;;10.43;78.48;100341.53;1087718;54;20018;-81
2022/05/01 02:42:18;;;;;;;28.23;23.48;;;;;;;10.41;78.82;100346.16;1087920;54;20031;-79
2022/05/01 02:43:20;;;;;;;30.52;25.30;;;;;;;10.32;79.26;100344.28;1088100;54;20059;-82
2022/05/01 02:44:24;;;;;;;30.40;23.98;;;;;;;10.50;78.68;100349.00;1088087;54;20015;-81
2022/05/01 02:45:26;;;;;;;25.98;22.83;;;;;;;10.52;78.22;100339.00;1088127;54;20034;-80
2022/05/01 02:46:30;;;;;;;28.38;25.23;;;;;;;10.39;78.58;100344.63;1088128;54;20070;-81
2022/05/01 02:47:33;;;;;;;28.70;24.35;;;;;;;10.32;79.17;100344.28;1088160;54;20066;-80
2022/05/01 02:48:38;;;;;;;30.75;24.45;;;;;;;10.37;79.35;100342.09;1088142;54;20034;-81
2022/05/01 02:49:40;;;;;;;27.98;23.80;;;;;;;10.49;78.52;100341.94;1088132;54;20037;-81
2022/05/01 02:50:45;;;;;;;26.80;23.42;;;;;;;10.37;78.91;100342.09;1088087;54;20026;-80
2022/05/01 02:51:46;;;;;;;29.30;23.88;;;;;;;10.41;79.24;100346.16;1088117;54;20035;-80
2022/05/01 02:52:51;;;;;;;27.15;22.38;;;;;;;10.60;78.42;100336.50;1088092;54;20046;-82
2022/05/01 02:53:52;;;;;;;23.73;20.90;;;;;;;10.65;77.99;100331.59;1088151;54;20037;-81
2022/05/01 02:54:56;;;;;;;27.52;22.42;;;;;;;10.66;78.08;100332.44;1088468;39;20586;-81
2022/05/01 02:56:01;;;;;;;25.02;22.20;;;;;;;10.63;78.39;100343.41;1088068;54;20042;-82
2022/05/01 02:57:06;;;;;;;26.20;22.15;;;;;;;10.65;77.91;100331.59;1088037;54;20031;-82
2022/05/01 02:58:08;;;;;;;27.48;21.55;;;;;;;10.61;78.02;100335.50;1087902;54;20041;-81
2022/05/01 02:59:12;;;;;;;29.23;24.40;;;;;;;10.53;78.47;100333.53;1088186;54;20090;-80
2022/05/01 03:00:16;;;;;;;27.90;22.08;;;;;;;10.58;78.23;100336.66;1088134;54;20029;-81
2022/05/01 03:01:21;;;;;;;25.38;22.63;;;;;;;10.54;78.25;100342.41;1088188;54;20027;-83
2022/05/01 03:02:23;;;;;;;26.58;23.17;;;;;;;10.54;78.39;100339.72;1088091;54;20034;-81
2022/05/01 03:03:27;;;;;;;28.98;23.60;;;;;;;10.52;78.74;100344.38;1088134;54;20090;-80
2022/05/01 03:04:29;;;;;;;27.85;24.15;;;;;;;10.59;78.68;100337.47;1088163;54;20022;-82
2022/05/01 03:05:33;;;;;;;30.20;23.40;;;;;;;10.48;78.96;100332.28;1087946;54;20111;-81
2022/05/01 03:06:35;;;;;;;32.33;25.80;;;;;;;10.30;79.54;100338.22;1088069;54;20041;-80
2022/05/01 03:07:39;;;;;;;31.70;25.38;;;;;;;10.14;80.37;100336.91;1088078;54;20031;-80
2022/05/01 03:08:41;;;;;;;31.27;25.88;;;;;;;10.15;80.57;100341.28;1089786;39;20643;-81
2022/05/01 03:09:45;;;;;;;30.50;25.65;;;;;;;10.24;80.13;100330.75;1088233;54;20091;-81
2022/05/01 03:10:47;;;;;;;27.83;24.73;;;;;;;10.25;80.17;100335.94;1088337;54;20066;-82
2022/05/01 03:11:55;;;;;;;35.17;26.63;;;;;;;10.14;80.83;100344.09;1088379;54;20038;-80
2022/05/01 03:12:57;;;;;;;33.35;26.58;;;;;;;10.14;80.44;100334.22;1088491;54;20030;-81
2022/05/01 03:14:01;;;;;;;31.02;25.48;;;;;;;10.15;80.45;100330.59;1090328;39;20590;-81
2022/05/01 03:15:03;;;;;;;31.25;26.08;;;;;;;10.17;80.68;100333.13;1088034;54;20059;-81
2022/05/01 03:16:08;;;;;;;28.75;24.67;;;;;;;10.16;80.55;100326.06;1088424;54;20061;-82
2022/05/01 03:17:09;;;;;;;32.10;25.13;;;;;;;10.11;80.68;100329.16;1088436;54;20039;-80
2022/05/01 03:22:15;;;;;;;33.13;25.42;;;;;;;10.11;80.89;100328.31;1088452;54;20019;-80
2022/05/01 03:23:17;;;;;;;31.85;26.70;;;;;;;10.07;81.07;100319.72;1088498;54;20103;-80
2022/05/01 03:24:21;;;;;;;32.17;25.17;;;;;;;10.08;80.95;100324.09;1088345;54;20038;-80
2022/05/01 03:25:23;;;;;;;31.38;25.58;;;;;;;10.06;81.30;100326.06;1088419;54;20042;-80
2022/05/01 03:26:27;;;;;;;30.63;25.50;;;;;;;10.13;80.73;100326.38;1088278;54;20026;-81
2022/05/01 03:27:34;;;;;;;31.33;25.33;;;;;;;10.14;80.78;100328.06;1088416;54;20022;-80
2022/05/01 03:28:35;;;;;;;29.45;24.13;;;;;;;10.22;80.65;100322.03;1088383;54;20041;-81
2022/05/01 03:29:40;;;;;;;27.48;24.08;;;;;;;10.25;80.14;100324.44;1088406;54;20062;-82
2022/05/01 03:30:42;;;;;;;28.00;23.23;;;;;;;10.29;79.91;100320.53;1089944;46;20034;-82
2022/05/01 03:31:48;;;;;;;31.77;25.42;;;;;;;10.29;80.08;100318.69;1088248;54;20034;-81
2022/05/01 03:32:51;;;;;;;29.20;24.63;;;;;;;10.23;80.04;100321.03;1088498;54;20038;-81
2022/05/01 03:33:56;;;;;;;28.13;24.05;;;;;;;10.25;80.10;100319.09;1088480;54;20053;-82
2022/05/01 03:34:58;;;;;;;34.63;26.70;;;;;;;10.19;80.32;100316.97;1088465;54;20046;-80
2022/05/01 03:36:06;;;;;;;28.73;25.63;;;;;;;10.19;80.37;100311.63;1088444;54;20034;-83
2022/05/01 03:37:11;;;;;;;30.42;24.33;;;;;;;10.23;80.36;100321.91;1088409;54;20035;-80
2022/05/01 03:38:13;;;;;;;31.33;25.92;;;;;;;10.15;80.58;100314.56;1088424;54;20019;-81
2022/05/01 03:39:17;;;;;;;30.83;26.08;;;;;;;10.15;80.69;100319.91;1088446;54;20030;-81
2022/05/01 03:40:18;;;;;;;30.17;25.70;;;;;;;10.15;80.49;100319.91;1088340;54;20041;-81
2022/05/01 03:41:23;;;;;;;32.17;25.15;;;;;;;10.19;80.68;100319.63;1088438;54;20030;-82
2022/05/01 03:42:27;;;;;;;30.10;24.90;;;;;;;10.17;80.58;100318.91;1088471;54;20026;-80
2022/05/01 03:43:35;;;;;;;27.98;23.85;;;;;;;10.18;80.53;100317.94;1088482;54;20025;-81
2022/05/01 03:44:36;;;;;;;30.02;25.30;;;;;;;10.19;80.59;100319.63;1088498;54;20023;-81
2022/05/01 03:45:40;;;;;;;27.98;22.15;;;;;;;10.34;79.78;100317.44;1088402;54;20057;-80
2022/05/01 03:46:42;;;;;;;28.48;22.63;;;;;;;10.35;79.74;100309.28;1088378;54;20027;-81
2022/05/01 03:47:46;;;;;;;30.92;22.95;;;;;;;10.35;79.54;100313.75;1088251;54;20091;-81
2022/05/01 03:48:48;;;;;;;28.23;23.88;;;;;;;10.34;79.47;100312.94;1087983;54;20041;-81
2022/05/01 03:49:52;;;;;;;28.73;23.10;;;;;;;10.29;79.83;100323.19;1088292;54;20732;-79
2022/05/01 03:50:54;;;;;;;27.58;24.48;;;;;;;10.22;79.99;100330.03;1088330;54;20038;-80
2022/05/01 03:51:59;;;;;;;27.05;23.35;;;;;;;10.20;80.16;100326.69;1097001;39;20535;-80
2022/05/01 03:53:02;;;;;;;30.27;23.55;;;;;;;10.23;80.08;100326.38;1088333;54;20030;-81
2022/05/01 03:54:07;;;;;;;28.85;23.60;;;;;;;10.23;80.02;100321.91;1088320;54;20018;-81
2022/05/01 03:55:09;;;;;;;28.23;23.60;;;;;;;10.21;80.27;100323.88;1088415;54;20041;-81
2022/05/01 03:56:14;;;;;;;27.60;24.17;;;;;;;10.17;80.09;100325.09;1088451;54;20037;-79
2022/05/01 03:57:15;;;;;;;28.08;23.52;;;;;;;10.17;80.30;100318.91;1088405;54;20054;-81
2022/05/01 03:58:21;;;;;;;28.90;23.58;;;;;;;10.20;80.09;100321.34;1088497;54;20025;-81
2022/05/01 03:59:25;;;;;;;28.92;23.88;;;;;;;10.29;79.88;100324.03;1088445;54;20034;-82
2022/05/01 04:00:29;;;;;;;26.95;23.35;;;;;;;10.37;79.64;100328.72;1088500;54;20031;-80
2022/05/01 04:01:33;;;;;;;24.38;21.77;;;;;;;10.41;79.28;100322.09;1088420;54;20066;-82
2022/05/01 04:02:42;;;;;;;28.08;23.75;;;;;;;10.37;79.32;100328.72;1088481;54;20037;-82
2022/05/01 04:03:47;;;;;;;25.88;22.33;;;;;;;10.40;79.20;100328.44;1089399;39;20629;-80
2022/05/01 04:04:51;;;;;;;29.75;22.88;;;;;;;10.36;79.38;100321.66;1088105;54;20034;-81
2022/05/01 04:05:55;;;;;;;28.45;23.83;;;;;;;10.39;79.28;100325.91;1088241;54;20030;-81
2022/05/01 04:06:57;;;;;;;28.45;24.23;;;;;;;10.36;79.26;100331.47;1088459;54;20042;-80
2022/05/01 04:08:01;;;;;;;29.15;22.85;;;;;;;10.37;79.43;100327.84;1088439;54;20123;-80
2022/05/01 04:09:03;;;;;;;28.10;23.55;;;;;;;10.39;79.50;100318.72;1088395;54;20055;-80
2022/05/01 04:10:09;;;;;;;29.42;24.48;;;;;;;10.33;79.54;100332.59;1097541;39;20678;-80
2022/05/01 04:11:10;;;;;;;28.90;24.30;;;;;;;10.32;79.67;100332.75;1088368;54;20034;-80
2022/05/01 04:12:15;;;;;;;27.02;22.75;;;;;;;10.36;79.54;100337.69;1089773;46;20737;-81
2022/05/01 04:13:16;;;;;;;27.58;24.13;;;;;;;10.30;79.49;100333.72;1088380;54;20026;-82
2022/05/01 04:14:20;;;;;;;29.27;24.60;;;;;;;10.20;80.13;100334.69;1088375;54;20041;-81
2022/05/01 04:15:25;;;;;;;30.58;26.15;;;;;;;10.17;80.30;100329.59;1088308;54;20026;-81
2022/05/01 04:16:30;;;;;;;33.75;26.80;;;;;;;10.15;80.49;100335.94;1088350;54;20011;-80
2022/05/01 04:17:31;;;;;;;30.15;26.15;;;;;;;10.18;80.27;100333.97;1088369;54;20037;-81
2022/05/01 04:18:37;;;;;;;29.20;24.80;;;;;;;10.26;80.08;100331.47;1088356;54;20030;-80
2022/05/01 04:19:39;;;;;;;31.13;24.95;;;;;;;10.27;79.95;100327.81;1088534;54;20713;-80
2022/05/01 04:20:45;;;;;;;29.25;24.02;;;;;;;10.30;79.86;100332.88;1089409;46;20030;-80
2022/05/01 04:21:46;;;;;;;27.60;22.73;;;;;;;10.32;79.44;100330.09;1088069;54;20037;-80
2022/05/01 04:22:51;;;;;;;27.23;23.42;;;;;;;10.34;79.26;100331.63;1088011;54;20034;-80
2022/05/01 04:23:55;;;;;;;26.65;23.02;;;;;;;10.34;79.39;100328.97;1087809;54;20095;-80
2022/05/01 04:24:57;;;;;;;29.10;23.55;;;;;;;10.30;79.56;100338.22;1087911;54;20034;-81
2022/05/01 04:26:03;;;;;;;28.13;23.83;;;;;;;10.29;79.66;100336.56;1090415;31;20804;-81
2022/05/01 04:27:06;;;;;;;26.35;23.45;;;;;;;10.38;79.37;100334.91;1088002;39;20696;-81
2022/05/01 04:28:11;;;;;;;26.48;21.73;;;;;;;10.51;78.69;100329.31;1087979;54;20086;-81
2022/05/01 04:30:35;;;;;;;28.33;23.25;;;;;;;10.41;78.91;100330.13;1087831;54;20034;-81
2022/05/01 04:31:37;;;;;;;27.13;22.40;;;;;;;10.39;78.96;100326.75;1087872;54;20034;-79
2022/05/01 04:32:53;;;;;;;28.42;23.30;;;;;;;10.47;78.62;100325.22;1088317;46;20045;-80
2022/05/01 04:33:54;;;;;;;24.15;21.30;;;;;;;10.58;78.41;100327.78;1087956;54;20041;-81
2022/05/01 04:34:59;;;;;;;26.15;19.83;;;;;;;10.65;78.07;100334.28;1087906;54;20035;-80
2022/05/01 04:36:03;;;;;;;25.13;20.25;;;;;;;10.70;78.04;100325.84;1088049;54;20030;-81
2022/05/01 04:37:05;;;;;;;21.02;18.52;;;;;;;10.75;77.78;100324.44;1088288;54;20027;-79
2022/05/01 04:38:11;;;;;;;22.55;19.52;;;;;;;10.73;77.60;100334.41;1088011;54;20034;-81
2022/05/01 04:39:13;;;;;;;22.73;19.90;;;;;;;10.80;77.41;100333.84;1088006;54;20038;-81
2022/05/01 04:40:17;;;;;;;24.98;19.05;;;;;;;10.83;77.50;100323.72;1088297;54;20057;-80
2022/05/01 04:41:19;;;;;;;21.70;19.02;;;;;;;10.84;77.06;100329.94;1088261;54;20030;-81
2022/05/01 04:42:23;;;;;;;22.17;19.55;;;;;;;10.77;77.55;100325.13;1088326;54;20042;-80
2022/05/01 04:43:26;;;;;;;25.50;19.38;;;;;;;10.80;77.49;100331.19;1088353;54;20035;-80
2022/05/01 04:44:30;;;;;;;23.35;19.30;;;;;;;10.86;77.31;100333.31;1088326;54;20026;-83
2022/05/01 04:45:35;;;;;;;22.15;18.63;;;;;;;10.88;76.94;100329.50;1088307;54;20030;-81
2022/05/01 04:46:39;;;;;;;20.38;18.17;;;;;;;10.91;77.03;100329.22;1088292;54;20038;-81
2022/05/01 04:47:41;;;;;;;23.92;19.45;;;;;;;10.89;77.12;100338.38;1088352;54;20744;-82
2022/05/01 04:48:45;;;;;;;22.58;18.95;;;;;;;10.88;76.87;100336.66;1088347;54;20742;-81
2022/05/01 04:49:47;;;;;;;22.08;19.40;;;;;;;10.92;76.95;100335.41;1088310;54;20045;-81
2022/05/01 04:50:52;;;;;;;21.48;18.92;;;;;;;10.93;76.82;100334.44;1088304;54;20034;-81
2022/05/01 04:51:53;;;;;;;21.42;18.60;;;;;;;11.01;76.83;100336.38;1088238;54;20014;-81
2022/05/01 04:53:00;;;;;;;22.25;18.23;;;;;;;11.01;76.74;100339.94;1088145;54;20580;-79
2022/05/01 04:54:01;;;;;;;20.92;17.92;;;;;;;11.03;76.48;100335.28;1088026;54;20029;-80
2022/05/01 04:55:06;;;;;;;22.73;19.70;;;;;;;10.99;76.34;100344.56;1089143;39;20515;-80
2022/05/01 04:57:27;;;;;;;19.30;16.77;;;;;;;11.08;76.20;100338.38;1088112;54;20058;-79
2022/05/01 04:58:31;;;;;;;18.23;16.20;;;;;;;11.16;76.01;100336.81;1088182;54;20038;-79
2022/05/01 04:59:32;;;;;;;21.23;17.67;;;;;;;11.15;76.25;100338.66;1088226;54;20041;-79
2022/05/01 05:00:40;;;;;;;19.52;16.55;;;;;;;11.19;75.89;100333.88;1088148;54;20053;-79
2022/05/01 05:01:41;;;;;;;19.58;16.52;;;;;;;11.18;75.76;100337.53;1088097;54;20027;-79
2022/05/01 05:02:45;;;;;;;21.15;17.70;;;;;;;11.17;75.95;100335.84;1088239;54;20031;-79
2022/05/01 05:03:47;;;;;;;23.20;19.80;;;;;;;11.08;75.71;100343.72;1088152;54;20042;-80
2022/05/01 05:04:51;;;;;;;20.98;18.42;;;;;;;11.14;75.92;100341.50;1088155;54;20247;-79